sensor_id;sensor_type;location;lat;lon;timestamp;temperature;humidity
5459;DHT22;2752;49.992;8.422;2022-08-25T00:01:10;23.30;1.00
5459;DHT22;2752;49.992;8.422;2022-08-25T00:03:39;23.10;1.00
5459;DHT22;2752;49.992;8.422;2022-08-25T00:06:06;23.00;1.00
5459;DHT22;2752;49.992;8.422;2022-08-25T00:08:33;23.00;1.00
5459;DHT22;2752;49.992;8.422;2022-08-25T00:11:03;23.00;1.00
5459;DHT22;2752;49.992;8.422;2022-08-25T00:13:30;23.20;1.00
5459;DHT22;2752;49.992;8.422;2022-08-25T00:15:57;23.00;1.00
5459;DHT22;2752;49.992;8.422;2022-08-25T00:18:26;22.80;1.00
5459;DHT22;2752;49.992;8.422;2022-08-25T00:20:52;22.80;1.00
5459;DHT22;2752;49.992;8.422;2022-08-25T00:23:19;22.80;1.00
5459;DHT22;2752;49.992;8.422;2022-08-25T00:25:46;22.90;1.00
5459;DHT22;2752;49.992;8.422;2022-08-25T00:28:13;23.30;1.00
5459;DHT22;2752;49.992;8.422;2022-08-25T00:30:41;22.80;1.00
5459;DHT22;2752;49.992;8.422;2022-08-25T00:33:08;22.80;1.00
5459;DHT22;2752;49.992;8.422;2022-08-25T00:35:37;22.90;1.00
5459;DHT22;2752;49.992;8.422;2022-08-25T00:38:04;22.70;1.00
5459;DHT22;2752;49.992;8.422;2022-08-25T00:40:31;22.70;1.00
5459;DHT22;2752;49.992;8.422;2022-08-25T00:42:57;22.70;1.00
5459;DHT22;2752;49.992;8.422;2022-08-25T00:45:25;22.60;1.00
5459;DHT22;2752;49.992;8.422;2022-08-25T00:47:51;22.60;1.00
5459;DHT22;2752;49.992;8.422;2022-08-25T00:50:19;22.60;1.00
5459;DHT22;2752;49.992;8.422;2022-08-25T00:52:50;22.40;1.00
5459;DHT22;2752;49.992;8.422;2022-08-25T00:55:22;22.50;1.00
5459;DHT22;2752;49.992;8.422;2022-08-25T00:57:53;22.50;1.00
5459;DHT22;2752;49.992;8.422;2022-08-25T01:00:23;22.90;1.00
5459;DHT22;2752;49.992;8.422;2022-08-25T01:02:50;22.50;1.00
5459;DHT22;2752;49.992;8.422;2022-08-25T01:05:17;22.40;1.00
5459;DHT22;2752;49.992;8.422;2022-08-25T01:07:45;22.40;1.00
5459;DHT22;2752;49.992;8.422;2022-08-25T01:10:16;22.40;1.00
5459;DHT22;2752;49.992;8.422;2022-08-25T01:12:43;22.30;1.00
5459;DHT22;2752;49.992;8.422;2022-08-25T01:15:11;22.30;1.00
5459;DHT22;2752;49.992;8.422;2022-08-25T01:17:45;22.30;1.00
5459;DHT22;2752;49.992;8.422;2022-08-25T01:20:13;22.20;1.00
5459;DHT22;2752;49.992;8.422;2022-08-25T01:22:41;22.10;1.00
5459;DHT22;2752;49.992;8.422;2022-08-25T01:25:19;22.20;1.00
5459;DHT22;2752;49.992;8.422;2022-08-25T01:27:47;22.10;1.00
5459;DHT22;2752;49.992;8.422;2022-08-25T01:30:14;22.00;1.00
5459;DHT22;2752;49.992;8.422;2022-08-25T01:32:40;22.00;1.00
5459;DHT22;2752;49.992;8.422;2022-08-25T01:35:07;21.90;1.00
5459;DHT22;2752;49.992;8.422;2022-08-25T01:37:34;22.00;1.00
5459;DHT22;2752;49.992;8.422;2022-08-25T01:40:03;21.90;1.00
5459;DHT22;2752;49.992;8.422;2022-08-25T01:42:41;22.00;1.00
5459;DHT22;2752;49.992;8.422;2022-08-25T01:45:11;22.10;1.00
5459;DHT22;2752;49.992;8.422;2022-08-25T01:47:38;22.00;1.00
5459;DHT22;2752;49.992;8.422;2022-08-25T01:52:37;22.10;1.00
5459;DHT22;2752;49.992;8.422;2022-08-25T01:57:39;22.60;1.00
5459;DHT22;2752;49.992;8.422;2022-08-25T02:00:07;21.90;1.00
5459;DHT22;2752;49.992;8.422;2022-08-25T02:02:34;22.00;1.00
5459;DHT22;2752;49.992;8.422;2022-08-25T02:05:01;21.90;1.00
5459;DHT22;2752;49.992;8.422;2022-08-25T02:07:28;21.90;1.00
5459;DHT22;2752;49.992;8.422;2022-08-25T02:09:55;21.90;1.00
5459;DHT22;2752;49.992;8.422;2022-08-25T02:12:23;21.90;1.00
5459;DHT22;2752;49.992;8.422;2022-08-25T02:17:16;21.80;1.00
5459;DHT22;2752;49.992;8.422;2022-08-25T02:19:43;21.80;1.00
5459;DHT22;2752;49.992;8.422;2022-08-25T02:22:10;21.70;1.00
5459;DHT22;2752;49.992;8.422;2022-08-25T02:24:36;21.70;1.00
5459;DHT22;2752;49.992;8.422;2022-08-25T02:27:03;21.70;1.00
5459;DHT22;2752;49.992;8.422;2022-08-25T02:29:31;21.70;1.00
5459;DHT22;2752;49.992;8.422;2022-08-25T02:31:58;21.70;1.00
5459;DHT22;2752;49.992;8.422;2022-08-25T02:34:25;21.70;1.00
5459;DHT22;2752;49.992;8.422;2022-08-25T02:36:51;21.70;1.00
5459;DHT22;2752;49.992;8.422;2022-08-25T02:39:18;21.50;1.00
5459;DHT22;2752;49.992;8.422;2022-08-25T02:41:45;21.60;1.00
5459;DHT22;2752;49.992;8.422;2022-08-25T02:44:11;21.70;1.00
5459;DHT22;2752;49.992;8.422;2022-08-25T02:49:07;21.80;1.00
5459;DHT22;2752;49.992;8.422;2022-08-25T02:51:35;21.50;1.00
5459;DHT22;2752;49.992;8.422;2022-08-25T02:54:03;21.50;1.00
5459;DHT22;2752;49.992;8.422;2022-08-25T02:56:31;21.40;1.00
5459;DHT22;2752;49.992;8.422;2022-08-25T02:58:58;21.40;1.00
5459;DHT22;2752;49.992;8.422;2022-08-25T03:01:26;21.40;1.00
5459;DHT22;2752;49.992;8.422;2022-08-25T03:03:55;21.40;1.00
5459;DHT22;2752;49.992;8.422;2022-08-25T03:06:22;21.40;1.00
5459;DHT22;2752;49.992;8.422;2022-08-25T03:08:49;21.30;1.00
5459;DHT22;2752;49.992;8.422;2022-08-25T03:11:17;21.20;1.00
5459;DHT22;2752;49.992;8.422;2022-08-25T03:13:44;21.20;1.00
5459;DHT22;2752;49.992;8.422;2022-08-25T03:16:11;21.20;1.00
5459;DHT22;2752;49.992;8.422;2022-08-25T03:18:39;21.10;1.00
5459;DHT22;2752;49.992;8.422;2022-08-25T03:21:08;21.30;1.00
5459;DHT22;2752;49.992;8.422;2022-08-25T03:23:36;21.00;1.00
5459;DHT22;2752;49.992;8.422;2022-08-25T03:26:02;21.00;1.00
5459;DHT22;2752;49.992;8.422;2022-08-25T03:28:47;21.20;1.00
5459;DHT22;2752;49.992;8.422;2022-08-25T03:31:13;21.00;1.00
5459;DHT22;2752;49.992;8.422;2022-08-25T03:33:40;21.10;1.00
5459;DHT22;2752;49.992;8.422;2022-08-25T03:36:09;21.10;1.00
5459;DHT22;2752;49.992;8.422;2022-08-25T03:38:36;21.10;1.00
5459;DHT22;2752;49.992;8.422;2022-08-25T03:41:11;21.00;1.00
5459;DHT22;2752;49.992;8.422;2022-08-25T03:43:39;21.00;1.00
5459;DHT22;2752;49.992;8.422;2022-08-25T03:46:06;21.20;1.00
5459;DHT22;2752;49.992;8.422;2022-08-25T03:48:32;21.00;1.00
5459;DHT22;2752;49.992;8.422;2022-08-25T03:50:59;21.00;1.00
5459;DHT22;2752;49.992;8.422;2022-08-25T03:53:27;21.00;1.00
5459;DHT22;2752;49.992;8.422;2022-08-25T03:55:53;21.00;1.00
5459;DHT22;2752;49.992;8.422;2022-08-25T03:58:22;21.00;1.00
5459;DHT22;2752;49.992;8.422;2022-08-25T04:00:48;20.90;1.00
5459;DHT22;2752;49.992;8.422;2022-08-25T04:03:16;21.00;1.00
5459;DHT22;2752;49.992;8.422;2022-08-25T04:05:43;20.90;1.00
5459;DHT22;2752;49.992;8.422;2022-08-25T04:08:10;21.00;1.00
5459;DHT22;2752;49.992;8.422;2022-08-25T04:10:38;21.00;1.00
5459;DHT22;2752;49.992;8.422;2022-08-25T04:13:05;20.90;1.00
5459;DHT22;2752;49.992;8.422;2022-08-25T04:15:32;20.90;1.00
5459;DHT22;2752;49.992;8.422;2022-08-25T04:20:25;20.90;1.00
5459;DHT22;2752;49.992;8.422;2022-08-25T04:22:54;20.90;1.00
5459;DHT22;2752;49.992;8.422;2022-08-25T04:25:20;20.80;1.00
5459;DHT22;2752;49.992;8.422;2022-08-25T04:27:48;20.90;1.00
5459;DHT22;2752;49.992;8.422;2022-08-25T04:30:15;20.90;1.00
5459;DHT22;2752;49.992;8.422;2022-08-25T04:32:42;21.00;1.00
5459;DHT22;2752;49.992;8.422;2022-08-25T04:35:09;20.80;1.00
5459;DHT22;2752;49.992;8.422;2022-08-25T04:37:36;20.90;1.00
5459;DHT22;2752;49.992;8.422;2022-08-25T04:40:03;20.90;1.00
5459;DHT22;2752;49.992;8.422;2022-08-25T04:42:30;20.90;1.00
5459;DHT22;2752;49.992;8.422;2022-08-25T04:44:58;21.10;1.00
5459;DHT22;2752;49.992;8.422;2022-08-25T04:47:27;20.90;1.00
5459;DHT22;2752;49.992;8.422;2022-08-25T04:49:53;20.80;1.00
5459;DHT22;2752;49.992;8.422;2022-08-25T04:52:20;20.80;1.00
5459;DHT22;2752;49.992;8.422;2022-08-25T04:57:14;20.80;1.00
5459;DHT22;2752;49.992;8.422;2022-08-25T04:59:41;20.90;1.00
5459;DHT22;2752;49.992;8.422;2022-08-25T05:02:09;20.90;1.00
5459;DHT22;2752;49.992;8.422;2022-08-25T05:04:36;20.90;1.00
5459;DHT22;2752;49.992;8.422;2022-08-25T05:07:04;20.90;1.00
5459;DHT22;2752;49.992;8.422;2022-08-25T05:09:31;20.90;1.00
5459;DHT22;2752;49.992;8.422;2022-08-25T05:11:58;21.00;1.00
5459;DHT22;2752;49.992;8.422;2022-08-25T05:14:24;21.10;1.00
5459;DHT22;2752;49.992;8.422;2022-08-25T05:16:51;21.10;1.00
5459;DHT22;2752;49.992;8.422;2022-08-25T05:19:19;21.00;1.00
5459;DHT22;2752;49.992;8.422;2022-08-25T05:21:46;21.00;1.00
5459;DHT22;2752;49.992;8.422;2022-08-25T05:24:13;21.20;1.00
5459;DHT22;2752;49.992;8.422;2022-08-25T05:26:40;21.10;1.00
5459;DHT22;2752;49.992;8.422;2022-08-25T05:29:07;21.10;1.00
5459;DHT22;2752;49.992;8.422;2022-08-25T05:31:35;21.10;1.00
5459;DHT22;2752;49.992;8.422;2022-08-25T05:34:05;21.20;1.00
5459;DHT22;2752;49.992;8.422;2022-08-25T05:36:33;21.40;1.00
5459;DHT22;2752;49.992;8.422;2022-08-25T05:39:00;21.40;1.00
5459;DHT22;2752;49.992;8.422;2022-08-25T05:41:28;21.40;1.00
5459;DHT22;2752;49.992;8.422;2022-08-25T05:43:56;21.70;1.00
5459;DHT22;2752;49.992;8.422;2022-08-25T05:46:23;21.50;1.00
5459;DHT22;2752;49.992;8.422;2022-08-25T05:48:50;21.50;1.00
5459;DHT22;2752;49.992;8.422;2022-08-25T05:51:17;21.50;1.00
5459;DHT22;2752;49.992;8.422;2022-08-25T05:53:47;21.80;1.00
5459;DHT22;2752;49.992;8.422;2022-08-25T05:56:14;21.70;1.00
5459;DHT22;2752;49.992;8.422;2022-08-25T05:58:41;21.60;1.00
5459;DHT22;2752;49.992;8.422;2022-08-25T06:01:09;21.70;1.00
5459;DHT22;2752;49.992;8.422;2022-08-25T06:03:53;21.80;1.00
5459;DHT22;2752;49.992;8.422;2022-08-25T06:06:21;21.90;1.00
5459;DHT22;2752;49.992;8.422;2022-08-25T06:08:49;21.90;1.00
5459;DHT22;2752;49.992;8.422;2022-08-25T06:11:16;22.00;1.00
5459;DHT22;2752;49.992;8.422;2022-08-25T06:13:43;22.20;1.00
5459;DHT22;2752;49.992;8.422;2022-08-25T06:16:10;22.10;1.00
5459;DHT22;2752;49.992;8.422;2022-08-25T06:18:37;22.30;1.00
5459;DHT22;2752;49.992;8.422;2022-08-25T06:21:08;22.20;1.00
5459;DHT22;2752;49.992;8.422;2022-08-25T06:23:37;22.30;1.00
5459;DHT22;2752;49.992;8.422;2022-08-25T06:26:06;22.40;1.00
5459;DHT22;2752;49.992;8.422;2022-08-25T06:28:35;22.20;1.00
5459;DHT22;2752;49.992;8.422;2022-08-25T06:31:01;22.50;1.00
5459;DHT22;2752;49.992;8.422;2022-08-25T06:33:28;22.70;1.00
5459;DHT22;2752;49.992;8.422;2022-08-25T06:35:56;23.00;1.00
5459;DHT22;2752;49.992;8.422;2022-08-25T06:38:23;22.70;1.00
5459;DHT22;2752;49.992;8.422;2022-08-25T06:40:50;22.70;1.00
5459;DHT22;2752;49.992;8.422;2022-08-25T06:43:18;22.90;1.00
5459;DHT22;2752;49.992;8.422;2022-08-25T06:45:45;23.10;1.00
5459;DHT22;2752;49.992;8.422;2022-08-25T06:48:13;23.10;1.00
5459;DHT22;2752;49.992;8.422;2022-08-25T06:50:40;23.20;1.00
5459;DHT22;2752;49.992;8.422;2022-08-25T06:53:07;23.50;1.00
5459;DHT22;2752;49.992;8.422;2022-08-25T06:55:33;23.40;1.00
5459;DHT22;2752;49.992;8.422;2022-08-25T06:58:01;23.50;1.00
5459;DHT22;2752;49.992;8.422;2022-08-25T07:00:29;23.70;1.00
5459;DHT22;2752;49.992;8.422;2022-08-25T07:02:57;23.70;1.00
5459;DHT22;2752;49.992;8.422;2022-08-25T07:05:26;23.80;1.00
5459;DHT22;2752;49.992;8.422;2022-08-25T07:07:52;23.90;1.00
5459;DHT22;2752;49.992;8.422;2022-08-25T07:10:19;23.90;1.00
5459;DHT22;2752;49.992;8.422;2022-08-25T07:12:46;24.10;1.00
5459;DHT22;2752;49.992;8.422;2022-08-25T07:15:12;24.10;1.00
5459;DHT22;2752;49.992;8.422;2022-08-25T07:17:40;24.30;1.00
5459;DHT22;2752;49.992;8.422;2022-08-25T07:20:08;24.30;1.00
5459;DHT22;2752;49.992;8.422;2022-08-25T07:22:34;24.50;1.00
5459;DHT22;2752;49.992;8.422;2022-08-25T07:25:01;24.90;1.00
5459;DHT22;2752;49.992;8.422;2022-08-25T07:27:28;24.80;1.00
5459;DHT22;2752;49.992;8.422;2022-08-25T07:29:56;24.80;1.00
5459;DHT22;2752;49.992;8.422;2022-08-25T07:32:22;24.80;1.00
5459;DHT22;2752;49.992;8.422;2022-08-25T07:34:50;25.30;1.00
5459;DHT22;2752;49.992;8.422;2022-08-25T07:37:37;25.90;1.00
5459;DHT22;2752;49.992;8.422;2022-08-25T07:40:04;25.50;1.00
5459;DHT22;2752;49.992;8.422;2022-08-25T07:42:31;25.40;1.00
5459;DHT22;2752;49.992;8.422;2022-08-25T07:44:58;25.40;1.00
5459;DHT22;2752;49.992;8.422;2022-08-25T07:47:25;25.50;1.00
5459;DHT22;2752;49.992;8.422;2022-08-25T07:49:53;25.30;1.00
5459;DHT22;2752;49.992;8.422;2022-08-25T07:52:19;25.50;1.00
5459;DHT22;2752;49.992;8.422;2022-08-25T07:54:46;25.60;1.00
5459;DHT22;2752;49.992;8.422;2022-08-25T07:57:13;25.50;1.00
5459;DHT22;2752;49.992;8.422;2022-08-25T07:59:40;25.50;1.00
5459;DHT22;2752;49.992;8.422;2022-08-25T08:02:08;25.50;1.00
5459;DHT22;2752;49.992;8.422;2022-08-25T08:04:36;25.40;1.00
5459;DHT22;2752;49.992;8.422;2022-08-25T08:07:04;25.60;1.00
5459;DHT22;2752;49.992;8.422;2022-08-25T08:09:31;26.40;1.00
5459;DHT22;2752;49.992;8.422;2022-08-25T08:11:58;25.90;1.00
5459;DHT22;2752;49.992;8.422;2022-08-25T08:14:25;26.00;1.00
5459;DHT22;2752;49.992;8.422;2022-08-25T08:16:52;26.30;1.00
5459;DHT22;2752;49.992;8.422;2022-08-25T08:19:18;26.20;1.00
5459;DHT22;2752;49.992;8.422;2022-08-25T08:21:47;26.30;1.00
5459;DHT22;2752;49.992;8.422;2022-08-25T08:24:16;26.40;1.00
5459;DHT22;2752;49.992;8.422;2022-08-25T08:26:43;26.80;1.00
5459;DHT22;2752;49.992;8.422;2022-08-25T08:29:09;26.40;1.00
5459;DHT22;2752;49.992;8.422;2022-08-25T08:31:37;26.50;1.00
5459;DHT22;2752;49.992;8.422;2022-08-25T08:34:03;26.60;1.00
5459;DHT22;2752;49.992;8.422;2022-08-25T08:36:30;26.90;1.00
5459;DHT22;2752;49.992;8.422;2022-08-25T08:38:57;26.90;1.00
5459;DHT22;2752;49.992;8.422;2022-08-25T08:41:39;27.20;1.00
5459;DHT22;2752;49.992;8.422;2022-08-25T08:44:33;27.20;1.00
5459;DHT22;2752;49.992;8.422;2022-08-25T08:47:04;27.50;1.00
5459;DHT22;2752;49.992;8.422;2022-08-25T08:49:38;27.50;1.00
5459;DHT22;2752;49.992;8.422;2022-08-25T08:52:08;27.80;1.00
5459;DHT22;2752;49.992;8.422;2022-08-25T08:54:38;28.20;1.00
5459;DHT22;2752;49.992;8.422;2022-08-25T08:57:13;28.00;1.00
5459;DHT22;2752;49.992;8.422;2022-08-25T08:59:46;27.90;1.00
5459;DHT22;2752;49.992;8.422;2022-08-25T09:02:21;28.00;1.00
5459;DHT22;2752;49.992;8.422;2022-08-25T09:04:55;28.20;1.00
5459;DHT22;2752;49.992;8.422;2022-08-25T09:07:28;28.20;1.00
5459;DHT22;2752;49.992;8.422;2022-08-25T09:09:56;28.20;1.00
5459;DHT22;2752;49.992;8.422;2022-08-25T09:12:29;28.30;1.00
5459;DHT22;2752;49.992;8.422;2022-08-25T09:15:06;28.40;1.00
5459;DHT22;2752;49.992;8.422;2022-08-25T09:18:00;28.30;1.00
5459;DHT22;2752;49.992;8.422;2022-08-25T09:20:46;28.30;1.00
5459;DHT22;2752;49.992;8.422;2022-08-25T09:23:24;28.40;1.00
5459;DHT22;2752;49.992;8.422;2022-08-25T09:25:58;28.40;1.00
5459;DHT22;2752;49.992;8.422;2022-08-25T09:28:31;28.70;1.00
5459;DHT22;2752;49.992;8.422;2022-08-25T09:31:01;28.90;1.00
5459;DHT22;2752;49.992;8.422;2022-08-25T09:33:30;29.00;1.00
5459;DHT22;2752;49.992;8.422;2022-08-25T09:35:58;29.10;1.00
5459;DHT22;2752;49.992;8.422;2022-08-25T09:38:26;29.00;1.00
5459;DHT22;2752;49.992;8.422;2022-08-25T09:40:56;29.20;1.00
5459;DHT22;2752;49.992;8.422;2022-08-25T09:43:32;29.10;1.00
5459;DHT22;2752;49.992;8.422;2022-08-25T09:46:02;29.30;1.00
5459;DHT22;2752;49.992;8.422;2022-08-25T09:48:31;29.00;1.00
5459;DHT22;2752;49.992;8.422;2022-08-25T09:51:16;28.90;1.00
5459;DHT22;2752;49.992;8.422;2022-08-25T09:56:12;29.60;1.00
5459;DHT22;2752;49.992;8.422;2022-08-25T09:58:41;29.40;1.00
5459;DHT22;2752;49.992;8.422;2022-08-25T10:01:14;29.30;1.00
5459;DHT22;2752;49.992;8.422;2022-08-25T10:03:53;29.30;1.00
5459;DHT22;2752;49.992;8.422;2022-08-25T10:06:21;29.70;1.00
5459;DHT22;2752;49.992;8.422;2022-08-25T10:08:55;29.80;1.00
5459;DHT22;2752;49.992;8.422;2022-08-25T10:11:33;29.70;1.00
5459;DHT22;2752;49.992;8.422;2022-08-25T10:16:39;29.90;1.00
5459;DHT22;2752;49.992;8.422;2022-08-25T10:19:09;30.30;1.00
5459;DHT22;2752;49.992;8.422;2022-08-25T10:21:38;30.30;1.00
5459;DHT22;2752;49.992;8.422;2022-08-25T10:24:06;30.00;1.00
5459;DHT22;2752;49.992;8.422;2022-08-25T10:26:43;30.00;1.00
5459;DHT22;2752;49.992;8.422;2022-08-25T10:29:21;29.90;1.00
5459;DHT22;2752;49.992;8.422;2022-08-25T10:31:55;30.10;1.00
5459;DHT22;2752;49.992;8.422;2022-08-25T10:34:36;29.60;1.00
5459;DHT22;2752;49.992;8.422;2022-08-25T10:37:13;29.80;1.00
5459;DHT22;2752;49.992;8.422;2022-08-25T10:39:52;29.50;1.00
5459;DHT22;2752;49.992;8.422;2022-08-25T10:42:31;29.70;1.00
5459;DHT22;2752;49.992;8.422;2022-08-25T10:45:12;30.30;1.00
5459;DHT22;2752;49.992;8.422;2022-08-25T10:50:57;30.20;1.00
5459;DHT22;2752;49.992;8.422;2022-08-25T10:56:03;30.40;1.00
5459;DHT22;2752;49.992;8.422;2022-08-25T10:58:48;30.70;1.00
5459;DHT22;2752;49.992;8.422;2022-08-25T11:01:24;31.20;1.00
5459;DHT22;2752;49.992;8.422;2022-08-25T11:03:57;31.40;1.00
5459;DHT22;2752;49.992;8.422;2022-08-25T11:06:33;31.30;1.00
5459;DHT22;2752;49.992;8.422;2022-08-25T11:11:34;32.30;1.00
5459;DHT22;2752;49.992;8.422;2022-08-25T11:14:06;32.00;1.00
5459;DHT22;2752;49.992;8.422;2022-08-25T11:16:37;32.10;1.00
5459;DHT22;2752;49.992;8.422;2022-08-25T11:19:12;32.30;1.00
5459;DHT22;2752;49.992;8.422;2022-08-25T11:21:48;32.60;1.00
5459;DHT22;2752;49.992;8.422;2022-08-25T11:24:31;32.60;1.00
5459;DHT22;2752;49.992;8.422;2022-08-25T11:27:00;32.30;1.00
5459;DHT22;2752;49.992;8.422;2022-08-25T11:29:32;32.60;1.00
5459;DHT22;2752;49.992;8.422;2022-08-25T11:32:01;32.10;1.00
5459;DHT22;2752;49.992;8.422;2022-08-25T11:34:32;32.10;1.00
5459;DHT22;2752;49.992;8.422;2022-08-25T11:37:04;32.80;1.00
5459;DHT22;2752;49.992;8.422;2022-08-25T11:39:46;33.10;1.00
5459;DHT22;2752;49.992;8.422;2022-08-25T11:42:26;33.30;1.00
5459;DHT22;2752;49.992;8.422;2022-08-25T11:45:06;33.10;1.00
5459;DHT22;2752;49.992;8.422;2022-08-25T11:47:53;33.10;1.00
5459;DHT22;2752;49.992;8.422;2022-08-25T11:50:28;33.30;1.00
5459;DHT22;2752;49.992;8.422;2022-08-25T11:55:43;33.40;1.00
5459;DHT22;2752;49.992;8.422;2022-08-25T11:58:24;33.80;1.00
5459;DHT22;2752;49.992;8.422;2022-08-25T12:00:54;33.80;1.00
5459;DHT22;2752;49.992;8.422;2022-08-25T12:03:53;33.80;1.00
5459;DHT22;2752;49.992;8.422;2022-08-25T12:07:21;33.60;1.00
5459;DHT22;2752;49.992;8.422;2022-08-25T12:13:00;34.10;1.00
5459;DHT22;2752;49.992;8.422;2022-08-25T12:18:10;33.20;1.00
5459;DHT22;2752;49.992;8.422;2022-08-25T12:21:08;33.70;1.00
5459;DHT22;2752;49.992;8.422;2022-08-25T12:23:39;33.70;1.00
5459;DHT22;2752;49.992;8.422;2022-08-25T12:26:10;34.00;1.00
5459;DHT22;2752;49.992;8.422;2022-08-25T12:28:50;33.40;1.00
5459;DHT22;2752;49.992;8.422;2022-08-25T12:31:27;32.90;1.00
5459;DHT22;2752;49.992;8.422;2022-08-25T12:34:06;32.70;1.00
5459;DHT22;2752;49.992;8.422;2022-08-25T12:39:16;33.00;1.00
5459;DHT22;2752;49.992;8.422;2022-08-25T12:41:55;32.50;1.00
5459;DHT22;2752;49.992;8.422;2022-08-25T12:47:30;31.80;1.00
5459;DHT22;2752;49.992;8.422;2022-08-25T12:50:24;31.40;1.00
5459;DHT22;2752;49.992;8.422;2022-08-25T12:52:53;31.40;1.00
5459;DHT22;2752;49.992;8.422;2022-08-25T12:57:53;31.20;1.00
5459;DHT22;2752;49.992;8.422;2022-08-25T13:00:26;31.50;1.00
5459;DHT22;2752;49.992;8.422;2022-08-25T13:03:15;31.20;1.00
5459;DHT22;2752;49.992;8.422;2022-08-25T13:06:06;31.40;1.00
5459;DHT22;2752;49.992;8.422;2022-08-25T13:08:51;31.20;1.00
5459;DHT22;2752;49.992;8.422;2022-08-25T13:11:26;31.20;1.00
5459;DHT22;2752;49.992;8.422;2022-08-25T13:14:00;31.50;1.00
5459;DHT22;2752;49.992;8.422;2022-08-25T13:16:29;31.00;1.00
5459;DHT22;2752;49.992;8.422;2022-08-25T13:18:58;31.50;1.00
5459;DHT22;2752;49.992;8.422;2022-08-25T13:21:32;31.30;1.00
5459;DHT22;2752;49.992;8.422;2022-08-25T13:26:32;31.70;1.00
5459;DHT22;2752;49.992;8.422;2022-08-25T13:29:11;31.60;1.00
5459;DHT22;2752;49.992;8.422;2022-08-25T13:31:50;31.60;1.00
5459;DHT22;2752;49.992;8.422;2022-08-25T13:34:20;31.70;1.00
5459;DHT22;2752;49.992;8.422;2022-08-25T13:36:48;31.60;1.00
5459;DHT22;2752;49.992;8.422;2022-08-25T13:39:34;31.90;1.00
5459;DHT22;2752;49.992;8.422;2022-08-25T13:42:04;31.60;1.00
5459;DHT22;2752;49.992;8.422;2022-08-25T13:44:35;31.80;1.00
5459;DHT22;2752;49.992;8.422;2022-08-25T13:49:35;32.10;1.00
5459;DHT22;2752;49.992;8.422;2022-08-25T13:52:03;32.00;1.00
5459;DHT22;2752;49.992;8.422;2022-08-25T13:57:10;32.80;1.00
5459;DHT22;2752;49.992;8.422;2022-08-25T13:59:40;32.70;1.00
5459;DHT22;2752;49.992;8.422;2022-08-25T14:02:09;31.70;1.00
5459;DHT22;2752;49.992;8.422;2022-08-25T14:04:48;33.00;1.00
5459;DHT22;2752;49.992;8.422;2022-08-25T14:07:26;33.10;1.00
5459;DHT22;2752;49.992;8.422;2022-08-25T14:09:55;33.10;1.00
5459;DHT22;2752;49.992;8.422;2022-08-25T14:12:29;33.00;1.00
5459;DHT22;2752;49.992;8.422;2022-08-25T14:14:57;32.30;1.00
5459;DHT22;2752;49.992;8.422;2022-08-25T14:17:24;32.70;1.00
5459;DHT22;2752;49.992;8.422;2022-08-25T14:22:18;33.00;1.00
5459;DHT22;2752;49.992;8.422;2022-08-25T14:24:45;33.00;1.00
5459;DHT22;2752;49.992;8.422;2022-08-25T14:27:11;32.90;1.00
5459;DHT22;2752;49.992;8.422;2022-08-25T14:29:39;33.10;1.00
5459;DHT22;2752;49.992;8.422;2022-08-25T14:32:06;33.00;1.00
5459;DHT22;2752;49.992;8.422;2022-08-25T14:34:34;33.00;1.00
5459;DHT22;2752;49.992;8.422;2022-08-25T14:37:05;33.00;1.00
5459;DHT22;2752;49.992;8.422;2022-08-25T14:39:35;33.00;1.00
5459;DHT22;2752;49.992;8.422;2022-08-25T14:42:01;32.60;1.00
5459;DHT22;2752;49.992;8.422;2022-08-25T14:44:28;32.50;1.00
5459;DHT22;2752;49.992;8.422;2022-08-25T14:46:56;32.50;1.00
5459;DHT22;2752;49.992;8.422;2022-08-25T14:49:25;32.40;1.00
5459;DHT22;2752;49.992;8.422;2022-08-25T14:54:25;32.70;1.00
5459;DHT22;2752;49.992;8.422;2022-08-25T14:56:52;32.40;1.00
5459;DHT22;2752;49.992;8.422;2022-08-25T14:59:20;32.40;1.00
5459;DHT22;2752;49.992;8.422;2022-08-25T15:01:47;32.40;1.00
5459;DHT22;2752;49.992;8.422;2022-08-25T15:04:17;32.70;1.00
5459;DHT22;2752;49.992;8.422;2022-08-25T15:06:44;32.50;1.00
5459;DHT22;2752;49.992;8.422;2022-08-25T15:09:13;32.10;1.00
5459;DHT22;2752;49.992;8.422;2022-08-25T15:11:42;32.40;1.00
5459;DHT22;2752;49.992;8.422;2022-08-25T15:14:11;32.20;1.00
5459;DHT22;2752;49.992;8.422;2022-08-25T15:16:42;32.70;1.00
5459;DHT22;2752;49.992;8.422;2022-08-25T15:19:11;32.40;1.00
5459;DHT22;2752;49.992;8.422;2022-08-25T15:21:42;32.80;1.00
5459;DHT22;2752;49.992;8.422;2022-08-25T15:24:10;33.20;1.00
5459;DHT22;2752;49.992;8.422;2022-08-25T15:26:40;33.30;1.00
5459;DHT22;2752;49.992;8.422;2022-08-25T15:29:08;33.20;1.00
5459;DHT22;2752;49.992;8.422;2022-08-25T15:31:35;33.00;1.00
5459;DHT22;2752;49.992;8.422;2022-08-25T15:34:03;32.90;1.00
5459;DHT22;2752;49.992;8.422;2022-08-25T15:36:29;32.60;1.00
5459;DHT22;2752;49.992;8.422;2022-08-25T15:38:57;32.60;1.00
5459;DHT22;2752;49.992;8.422;2022-08-25T15:41:24;32.30;1.00
5459;DHT22;2752;49.992;8.422;2022-08-25T15:43:51;32.20;1.00
5459;DHT22;2752;49.992;8.422;2022-08-25T15:46:19;32.40;1.00
5459;DHT22;2752;49.992;8.422;2022-08-25T15:48:48;31.90;1.00
5459;DHT22;2752;49.992;8.422;2022-08-25T15:51:16;31.80;1.00
5459;DHT22;2752;49.992;8.422;2022-08-25T15:53:43;31.70;1.00
5459;DHT22;2752;49.992;8.422;2022-08-25T15:56:11;31.30;1.00
5459;DHT22;2752;49.992;8.422;2022-08-25T15:58:42;31.60;1.00
5459;DHT22;2752;49.992;8.422;2022-08-25T16:01:11;31.50;1.00
5459;DHT22;2752;49.992;8.422;2022-08-25T16:03:38;31.20;1.00
5459;DHT22;2752;49.992;8.422;2022-08-25T16:06:05;31.80;1.00
5459;DHT22;2752;49.992;8.422;2022-08-25T16:08:32;32.00;1.00
5459;DHT22;2752;49.992;8.422;2022-08-25T16:10:59;32.50;1.00
5459;DHT22;2752;49.992;8.422;2022-08-25T16:13:27;31.70;1.00
5459;DHT22;2752;49.992;8.422;2022-08-25T16:15:54;33.00;1.00
5459;DHT22;2752;49.992;8.422;2022-08-25T16:20:48;33.90;1.00
5459;DHT22;2752;49.992;8.422;2022-08-25T16:23:16;33.30;1.00
5459;DHT22;2752;49.992;8.422;2022-08-25T16:25:44;33.50;1.00
5459;DHT22;2752;49.992;8.422;2022-08-25T16:28:13;34.00;1.00
5459;DHT22;2752;49.992;8.422;2022-08-25T16:30:45;33.70;1.00
5459;DHT22;2752;49.992;8.422;2022-08-25T16:33:12;34.20;1.00
5459;DHT22;2752;49.992;8.422;2022-08-25T16:35:40;33.90;1.00
5459;DHT22;2752;49.992;8.422;2022-08-25T16:38:07;34.30;1.00
5459;DHT22;2752;49.992;8.422;2022-08-25T16:40:37;33.70;1.00
5459;DHT22;2752;49.992;8.422;2022-08-25T16:43:04;34.10;1.00
5459;DHT22;2752;49.992;8.422;2022-08-25T16:45:31;34.60;1.00
5459;DHT22;2752;49.992;8.422;2022-08-25T16:47:59;34.50;1.00
5459;DHT22;2752;49.992;8.422;2022-08-25T16:50:25;34.60;1.00
5459;DHT22;2752;49.992;8.422;2022-08-25T16:52:54;34.80;1.00
5459;DHT22;2752;49.992;8.422;2022-08-25T16:55:38;34.30;1.00
5459;DHT22;2752;49.992;8.422;2022-08-25T16:58:05;34.60;1.00
5459;DHT22;2752;49.992;8.422;2022-08-25T17:07:59;34.70;1.00
5459;DHT22;2752;49.992;8.422;2022-08-25T17:11:02;34.60;1.00
5459;DHT22;2752;49.992;8.422;2022-08-25T17:13:30;34.70;1.00
5459;DHT22;2752;49.992;8.422;2022-08-25T17:15:56;34.90;1.00
5459;DHT22;2752;49.992;8.422;2022-08-25T17:18:27;34.60;1.00
5459;DHT22;2752;49.992;8.422;2022-08-25T17:20:58;34.50;1.00
5459;DHT22;2752;49.992;8.422;2022-08-25T17:28:19;33.90;1.00
5459;DHT22;2752;49.992;8.422;2022-08-25T17:35:43;32.50;1.00
5459;DHT22;2752;49.992;8.422;2022-08-25T17:38:10;32.70;1.00
5459;DHT22;2752;49.992;8.422;2022-08-25T17:40:38;32.30;1.00
5459;DHT22;2752;49.992;8.422;2022-08-25T17:43:05;32.10;1.00
5459;DHT22;2752;49.992;8.422;2022-08-25T17:45:31;32.00;1.00
5459;DHT22;2752;49.992;8.422;2022-08-25T17:47:58;31.30;1.00
5459;DHT22;2752;49.992;8.422;2022-08-25T17:50:25;31.50;1.00
5459;DHT22;2752;49.992;8.422;2022-08-25T17:52:53;31.00;1.00